Ana Sayfa
METAR-TAF:

METAR-TAF

Havaalanları :

Bandırma Havalimanı

Bandırma, Türkiye

Enlem: 40-19N, Boylam: 027-58E, yükseklik: 51 m

Güncel hava durumu gözlemi

Rapor saat 04:25 UTC de 23 saat ve 16 dakika önce yapıldı.
Sakin rüzgar
Sıcaklık 13°C
Nem 100%
Basınç 1022 hPa
Görüş mesafesi: 0500 m
1500 ft yükseklikte az bulutlu
3500 ft yükseklikte parçalı bulutlu
sis

METAR: LTBG 210425Z 00000KT 0500 R36/0400D R18/0900N FG FEW015 SCT035 13/13 Q1022 BECMG TL0500 3000 BR RMK RWY18 03004KT 360V060

Saat: 06:41 (03:41 UTC)

Tahmin

Rapor saat 01:40 UTC de 2 saat ve 1 dakika önce yapıldı.
Ayın 22'si saat 03 UTC'den ayın 22'si saat 12 UTC'ye kadar geçerli Tahmin
Rüzgar kuzey/kuzeydoğudan 13 kt
Görüş mesafesi 10 km veya daha fazla
1000 ft yükseklikte parçalı bulutlu
3000 ft yükseklikte parçalı çok bulutlu

TAF: LTBG 220140Z 2203/2212 03013KT 9999 SCT010 BKN030

4.000'den fazla havaalanı için hava durumu gözlemleri ve tahminleri (METAR ve TAF raporları).

Kullanılabilir istasyonlar harita üzerinde sarı ve kırmızı noktalarla gösterilir.

İstasyonun adını görmek için fareyi noktanın üzerinde gezdirin.

Sonrasında hava gözlem ve tahminlerini görmek için tıklayın.

Haritayı değiştirmek için: yaklaştırmak için siyah artı işaretli yeşil düğmeye ve uzaklaştırmak için de eksi işaretli düğmeye hızla tıklayın; bitişik haritalar için yeşil okları kullanın.


METAR-TAF: